sensor_id;sensor_type;location;lat;lon;timestamp;pressure;altitude;pressure_sealevel;temperature;humidity
58967;BME280;44744;51.894;5.080;2023-11-19T00:00:08;100905.52;;;12.09;100.00
58967;BME280;44744;51.894;5.080;2023-11-19T00:01:11;100906.59;;;12.09;100.00
58967;BME280;44744;51.894;5.080;2023-11-19T00:02:14;100900.58;;;12.09;100.00
58967;BME280;44744;51.894;5.080;2023-11-19T00:03:17;100900.08;;;12.08;100.00
58967;BME280;44744;51.894;5.080;2023-11-19T00:04:17;100902.03;;;12.08;100.00
58967;BME280;44744;51.894;5.080;2023-11-19T00:05:18;100899.80;;;12.07;100.00
58967;BME280;44744;51.894;5.080;2023-11-19T00:06:21;100901.31;;;12.05;100.00
58967;BME280;44744;51.894;5.080;2023-11-19T00:07:22;100901.27;;;12.06;100.00
58967;BME280;44744;51.894;5.080;2023-11-19T00:08:22;100896.23;;;12.04;100.00
58967;BME280;44744;51.894;5.080;2023-11-19T00:09:24;100895.68;;;12.05;100.00
58967;BME280;44744;51.894;5.080;2023-11-19T00:10:27;100887.05;;;12.04;100.00
58967;BME280;44744;51.894;5.080;2023-11-19T00:11:30;100882.64;;;12.03;100.00
58967;BME280;44744;51.894;5.080;2023-11-19T00:12:30;100884.41;;;12.03;100.00
58967;BME280;44744;51.894;5.080;2023-11-19T00:13:31;100888.34;;;12.03;100.00
58967;BME280;44744;51.894;5.080;2023-11-19T00:14:31;100884.66;;;12.02;100.00
58967;BME280;44744;51.894;5.080;2023-11-19T00:15:31;100890.16;;;12.02;100.00
58967;BME280;44744;51.894;5.080;2023-11-19T00:16:31;100893.94;;;12.02;100.00
58967;BME280;44744;51.894;5.080;2023-11-19T00:17:32;100890.95;;;12.01;100.00
58967;BME280;44744;51.894;5.080;2023-11-19T00:18:32;100888.52;;;12.00;100.00
58967;BME280;44744;51.894;5.080;2023-11-19T00:19:35;100885.17;;;12.00;100.00
58967;BME280;44744;51.894;5.080;2023-11-19T00:20:35;100883.95;;;11.99;100.00
58967;BME280;44744;51.894;5.080;2023-11-19T00:21:38;100882.44;;;11.98;100.00
58967;BME280;44744;51.894;5.080;2023-11-19T00:22:39;100885.09;;;11.98;100.00
58967;BME280;44744;51.894;5.080;2023-11-19T00:23:39;100882.63;;;11.98;100.00
58967;BME280;44744;51.894;5.080;2023-11-19T00:24:39;100880.52;;;11.98;100.00
58967;BME280;44744;51.894;5.080;2023-11-19T00:25:39;100884.29;;;11.97;100.00
58967;BME280;44744;51.894;5.080;2023-11-19T00:26:39;100885.02;;;11.97;100.00
58967;BME280;44744;51.894;5.080;2023-11-19T00:27:40;100888.06;;;11.96;100.00
58967;BME280;44744;51.894;5.080;2023-11-19T00:28:40;100885.25;;;11.95;100.00
58967;BME280;44744;51.894;5.080;2023-11-19T00:29:40;100883.52;;;11.95;100.00
58967;BME280;44744;51.894;5.080;2023-11-19T00:30:40;100883.35;;;11.94;100.00
58967;BME280;44744;51.894;5.080;2023-11-19T00:31:41;100887.27;;;11.94;100.00
58967;BME280;44744;51.894;5.080;2023-11-19T00:32:41;100885.52;;;11.93;100.00
58967;BME280;44744;51.894;5.080;2023-11-19T00:33:41;100887.67;;;11.93;100.00
58967;BME280;44744;51.894;5.080;2023-11-19T00:34:44;100887.85;;;11.93;100.00
58967;BME280;44744;51.894;5.080;2023-11-19T00:36:04;100889.30;;;11.92;100.00
58967;BME280;44744;51.894;5.080;2023-11-19T00:37:06;100893.53;;;11.92;100.00
58967;BME280;44744;51.894;5.080;2023-11-19T00:38:13;100895.86;;;11.92;100.00
58967;BME280;44744;51.894;5.080;2023-11-19T00:39:16;100900.14;;;11.92;100.00
58967;BME280;44744;51.894;5.080;2023-11-19T00:40:18;100895.00;;;11.92;100.00
58967;BME280;44744;51.894;5.080;2023-11-19T00:41:18;100895.02;;;11.91;100.00
58967;BME280;44744;51.894;5.080;2023-11-19T00:42:19;100891.83;;;11.92;100.00
58967;BME280;44744;51.894;5.080;2023-11-19T00:43:19;100893.94;;;11.92;100.00
58967;BME280;44744;51.894;5.080;2023-11-19T00:44:19;100892.55;;;11.91;100.00
58967;BME280;44744;51.894;5.080;2023-11-19T00:45:21;100893.79;;;11.91;100.00
58967;BME280;44744;51.894;5.080;2023-11-19T00:46:30;100890.13;;;11.90;100.00
58967;BME280;44744;51.894;5.080;2023-11-19T00:47:34;100885.74;;;11.89;100.00
58967;BME280;44744;51.894;5.080;2023-11-19T00:48:36;100885.20;;;11.89;100.00
58967;BME280;44744;51.894;5.080;2023-11-19T00:49:37;100884.70;;;11.89;100.00
58967;BME280;44744;51.894;5.080;2023-11-19T00:50:37;100880.63;;;11.89;100.00
58967;BME280;44744;51.894;5.080;2023-11-19T00:51:46;100880.29;;;11.89;100.00
58967;BME280;44744;51.894;5.080;2023-11-19T00:52:47;100877.81;;;11.88;100.00
58967;BME280;44744;51.894;5.080;2023-11-19T00:53:49;100876.79;;;11.88;100.00
58967;BME280;44744;51.894;5.080;2023-11-19T00:54:49;100875.96;;;11.87;100.00
58967;BME280;44744;51.894;5.080;2023-11-19T00:55:49;100875.81;;;11.87;100.00
58967;BME280;44744;51.894;5.080;2023-11-19T00:56:49;100880.25;;;11.86;100.00
58967;BME280;44744;51.894;5.080;2023-11-19T00:57:50;100882.22;;;11.86;100.00
58967;BME280;44744;51.894;5.080;2023-11-19T00:58:51;100886.17;;;11.85;100.00
58967;BME280;44744;51.894;5.080;2023-11-19T00:59:51;100885.13;;;11.85;100.00
58967;BME280;44744;51.894;5.080;2023-11-19T01:00:52;100894.52;;;11.85;100.00
58967;BME280;44744;51.894;5.080;2023-11-19T01:01:53;100891.90;;;11.84;100.00
58967;BME280;44744;51.894;5.080;2023-11-19T01:02:54;100884.70;;;11.84;100.00
58967;BME280;44744;51.894;5.080;2023-11-19T01:03:54;100880.09;;;11.83;100.00
58967;BME280;44744;51.894;5.080;2023-11-19T01:04:59;100870.05;;;11.83;100.00
58967;BME280;44744;51.894;5.080;2023-11-19T01:06:01;100867.20;;;11.82;100.00
58967;BME280;44744;51.894;5.080;2023-11-19T01:07:02;100867.63;;;11.82;100.00
58967;BME280;44744;51.894;5.080;2023-11-19T01:08:21;100863.75;;;11.81;100.00
58967;BME280;44744;51.894;5.080;2023-11-19T01:09:22;100860.61;;;11.80;100.00
58967;BME280;44744;51.894;5.080;2023-11-19T01:10:22;100853.40;;;11.79;100.00
58967;BME280;44744;51.894;5.080;2023-11-19T01:11:23;100853.80;;;11.78;100.00
58967;BME280;44744;51.894;5.080;2023-11-19T01:12:23;100846.88;;;11.79;100.00
58967;BME280;44744;51.894;5.080;2023-11-19T01:13:25;100849.73;;;11.78;100.00
58967;BME280;44744;51.894;5.080;2023-11-19T01:14:25;100845.84;;;11.78;100.00
58967;BME280;44744;51.894;5.080;2023-11-19T01:15:31;100848.66;;;11.78;100.00
58967;BME280;44744;51.894;5.080;2023-11-19T01:16:31;100843.23;;;11.78;100.00
58967;BME280;44744;51.894;5.080;2023-11-19T01:17:35;100848.20;;;11.77;100.00
58967;BME280;44744;51.894;5.080;2023-11-19T01:18:41;100846.45;;;11.77;100.00
58967;BME280;44744;51.894;5.080;2023-11-19T01:19:41;100844.90;;;11.76;100.00
58967;BME280;44744;51.894;5.080;2023-11-19T01:20:41;100842.06;;;11.76;100.00
58967;BME280;44744;51.894;5.080;2023-11-19T01:21:45;100837.83;;;11.76;100.00
58967;BME280;44744;51.894;5.080;2023-11-19T01:22:45;100836.10;;;11.75;100.00
58967;BME280;44744;51.894;5.080;2023-11-19T01:23:47;100838.77;;;11.75;100.00
58967;BME280;44744;51.894;5.080;2023-11-19T01:24:47;100840.10;;;11.74;100.00
58967;BME280;44744;51.894;5.080;2023-11-19T01:25:48;100844.02;;;11.73;100.00
58967;BME280;44744;51.894;5.080;2023-11-19T01:26:49;100846.02;;;11.72;100.00
58967;BME280;44744;51.894;5.080;2023-11-19T01:27:49;100840.89;;;11.72;100.00
58967;BME280;44744;51.894;5.080;2023-11-19T01:28:49;100847.45;;;11.72;100.00
58967;BME280;44744;51.894;5.080;2023-11-19T01:29:49;100848.58;;;11.71;100.00
58967;BME280;44744;51.894;5.080;2023-11-19T01:30:50;100851.65;;;11.70;100.00
58967;BME280;44744;51.894;5.080;2023-11-19T01:31:50;100847.98;;;11.69;100.00
58967;BME280;44744;51.894;5.080;2023-11-19T01:32:51;100850.33;;;11.68;100.00
58967;BME280;44744;51.894;5.080;2023-11-19T01:33:52;100851.92;;;11.68;100.00
58967;BME280;44744;51.894;5.080;2023-11-19T01:34:52;100858.00;;;11.67;100.00
58967;BME280;44744;51.894;5.080;2023-11-19T01:35:52;100867.74;;;11.68;100.00
58967;BME280;44744;51.894;5.080;2023-11-19T01:36:54;100864.63;;;11.66;100.00
58967;BME280;44744;51.894;5.080;2023-11-19T01:37:54;100862.36;;;11.66;100.00
58967;BME280;44744;51.894;5.080;2023-11-19T01:38:57;100860.63;;;11.65;100.00
58967;BME280;44744;51.894;5.080;2023-11-19T01:39:58;100860.69;;;11.64;100.00
58967;BME280;44744;51.894;5.080;2023-11-19T01:41:07;100858.59;;;11.64;100.00
58967;BME280;44744;51.894;5.080;2023-11-19T01:42:07;100857.92;;;11.63;100.00
58967;BME280;44744;51.894;5.080;2023-11-19T01:43:07;100861.13;;;11.62;100.00
58967;BME280;44744;51.894;5.080;2023-11-19T01:44:08;100859.80;;;11.60;100.00
58967;BME280;44744;51.894;5.080;2023-11-19T01:45:08;100863.37;;;11.60;100.00
58967;BME280;44744;51.894;5.080;2023-11-19T01:46:08;100863.22;;;11.60;100.00
58967;BME280;44744;51.894;5.080;2023-11-19T01:47:09;100861.91;;;11.58;100.00
58967;BME280;44744;51.894;5.080;2023-11-19T01:48:09;100860.87;;;11.58;100.00
58967;BME280;44744;51.894;5.080;2023-11-19T01:49:10;100855.09;;;11.57;100.00
58967;BME280;44744;51.894;5.080;2023-11-19T01:50:10;100859.04;;;11.56;100.00
58967;BME280;44744;51.894;5.080;2023-11-19T01:51:12;100857.66;;;11.55;100.00
58967;BME280;44744;51.894;5.080;2023-11-19T01:52:12;100854.36;;;11.54;100.00
58967;BME280;44744;51.894;5.080;2023-11-19T01:53:15;100859.73;;;11.53;100.00
58967;BME280;44744;51.894;5.080;2023-11-19T01:54:16;100855.02;;;11.52;100.00
58967;BME280;44744;51.894;5.080;2023-11-19T01:55:16;100855.96;;;11.51;100.00
58967;BME280;44744;51.894;5.080;2023-11-19T01:56:17;100856.02;;;11.50;100.00
58967;BME280;44744;51.894;5.080;2023-11-19T01:57:18;100855.73;;;11.48;100.00
58967;BME280;44744;51.894;5.080;2023-11-19T01:58:18;100856.84;;;11.48;100.00
58967;BME280;44744;51.894;5.080;2023-11-19T01:59:19;100854.24;;;11.47;100.00
58967;BME280;44744;51.894;5.080;2023-11-19T02:00:19;100858.16;;;11.47;100.00
58967;BME280;44744;51.894;5.080;2023-11-19T02:01:26;100857.71;;;11.45;100.00
58967;BME280;44744;51.894;5.080;2023-11-19T02:02:27;100857.08;;;11.43;100.00
58967;BME280;44744;51.894;5.080;2023-11-19T02:03:28;100856.60;;;11.43;100.00
58967;BME280;44744;51.894;5.080;2023-11-19T02:04:29;100853.67;;;11.41;100.00
58967;BME280;44744;51.894;5.080;2023-11-19T02:05:29;100853.73;;;11.41;100.00
58967;BME280;44744;51.894;5.080;2023-11-19T02:06:29;100847.82;;;11.39;100.00
58967;BME280;44744;51.894;5.080;2023-11-19T02:07:31;100850.86;;;11.38;100.00
58967;BME280;44744;51.894;5.080;2023-11-19T02:08:31;100850.77;;;11.37;100.00
58967;BME280;44744;51.894;5.080;2023-11-19T02:09:32;100846.93;;;11.35;100.00
58967;BME280;44744;51.894;5.080;2023-11-19T02:10:32;100847.88;;;11.34;100.00
58967;BME280;44744;51.894;5.080;2023-11-19T02:11:32;100847.27;;;11.33;100.00
58967;BME280;44744;51.894;5.080;2023-11-19T02:12:33;100849.63;;;11.32;100.00
58967;BME280;44744;51.894;5.080;2023-11-19T02:13:33;100854.65;;;11.31;100.00
58967;BME280;44744;51.894;5.080;2023-11-19T02:14:34;100855.40;;;11.30;100.00
58967;BME280;44744;51.894;5.080;2023-11-19T02:15:34;100865.70;;;11.29;100.00
58967;BME280;44744;51.894;5.080;2023-11-19T02:16:35;100863.10;;;11.28;100.00
58967;BME280;44744;51.894;5.080;2023-11-19T02:17:36;100868.36;;;11.26;100.00
58967;BME280;44744;51.894;5.080;2023-11-19T02:18:36;100866.24;;;11.26;100.00
58967;BME280;44744;51.894;5.080;2023-11-19T02:19:36;100866.27;;;11.25;100.00
58967;BME280;44744;51.894;5.080;2023-11-19T02:20:37;100860.11;;;11.25;100.00
58967;BME280;44744;51.894;5.080;2023-11-19T02:21:38;100863.52;;;11.24;100.00
58967;BME280;44744;51.894;5.080;2023-11-19T02:22:38;100861.42;;;11.23;100.00
58967;BME280;44744;51.894;5.080;2023-11-19T02:23:40;100863.82;;;11.22;100.00
58967;BME280;44744;51.894;5.080;2023-11-19T02:24:40;100866.52;;;11.21;100.00
58967;BME280;44744;51.894;5.080;2023-11-19T02:25:43;100867.28;;;11.20;100.00
58967;BME280;44744;51.894;5.080;2023-11-19T02:27:05;100867.52;;;11.19;100.00
58967;BME280;44744;51.894;5.080;2023-11-19T02:28:09;100867.22;;;11.18;100.00
58967;BME280;44744;51.894;5.080;2023-11-19T02:29:10;100866.20;;;11.18;100.00
58967;BME280;44744;51.894;5.080;2023-11-19T02:30:11;100868.39;;;11.16;100.00
58967;BME280;44744;51.894;5.080;2023-11-19T02:31:11;100867.72;;;11.16;100.00
58967;BME280;44744;51.894;5.080;2023-11-19T02:32:11;100868.17;;;11.14;100.00
58967;BME280;44744;51.894;5.080;2023-11-19T02:33:12;100865.34;;;11.14;100.00
58967;BME280;44744;51.894;5.080;2023-11-19T02:34:13;100866.98;;;11.13;100.00
58967;BME280;44744;51.894;5.080;2023-11-19T02:35:13;100864.23;;;11.12;100.00
58967;BME280;44744;51.894;5.080;2023-11-19T02:36:13;100863.21;;;11.11;100.00
58967;BME280;44744;51.894;5.080;2023-11-19T02:37:13;100868.41;;;11.09;100.00
58967;BME280;44744;51.894;5.080;2023-11-19T02:38:13;100872.54;;;11.08;100.00
58967;BME280;44744;51.894;5.080;2023-11-19T02:39:14;100871.83;;;11.08;100.00
58967;BME280;44744;51.894;5.080;2023-11-19T02:40:14;100876.44;;;11.08;100.00
58967;BME280;44744;51.894;5.080;2023-11-19T02:41:14;100874.73;;;11.07;100.00
58967;BME280;44744;51.894;5.080;2023-11-19T02:42:14;100875.30;;;11.07;100.00
58967;BME280;44744;51.894;5.080;2023-11-19T02:43:15;100871.27;;;11.06;100.00
58967;BME280;44744;51.894;5.080;2023-11-19T02:44:15;100877.48;;;11.06;100.00
58967;BME280;44744;51.894;5.080;2023-11-19T02:45:16;100869.77;;;11.04;100.00
58967;BME280;44744;51.894;5.080;2023-11-19T02:46:17;100870.35;;;11.03;100.00
58967;BME280;44744;51.894;5.080;2023-11-19T02:47:17;100869.46;;;11.04;100.00
58967;BME280;44744;51.894;5.080;2023-11-19T02:48:18;100868.82;;;11.03;100.00
58967;BME280;44744;51.894;5.080;2023-11-19T02:49:18;100862.66;;;11.02;100.00
58967;BME280;44744;51.894;5.080;2023-11-19T02:50:19;100861.63;;;11.01;100.00
58967;BME280;44744;51.894;5.080;2023-11-19T02:51:20;100862.94;;;11.00;100.00
58967;BME280;44744;51.894;5.080;2023-11-19T02:52:23;100863.01;;;10.99;100.00
58967;BME280;44744;51.894;5.080;2023-11-19T02:53:30;100869.23;;;10.99;100.00
58967;BME280;44744;51.894;5.080;2023-11-19T02:54:30;100868.40;;;10.97;100.00
58967;BME280;44744;51.894;5.080;2023-11-19T02:55:31;100866.52;;;10.96;100.00
58967;BME280;44744;51.894;5.080;2023-11-19T02:56:32;100862.68;;;10.95;100.00
58967;BME280;44744;51.894;5.080;2023-11-19T02:57:32;100860.27;;;10.94;100.00
58967;BME280;44744;51.894;5.080;2023-11-19T02:58:33;100856.13;;;10.92;100.00
58967;BME280;44744;51.894;5.080;2023-11-19T02:59:35;100855.77;;;10.92;100.00
58967;BME280;44744;51.894;5.080;2023-11-19T03:00:36;100856.18;;;10.91;100.00
58967;BME280;44744;51.894;5.080;2023-11-19T03:01:38;100857.97;;;10.90;100.00
58967;BME280;44744;51.894;5.080;2023-11-19T03:02:40;100856.42;;;10.90;100.00
58967;BME280;44744;51.894;5.080;2023-11-19T03:03:44;100854.85;;;10.89;100.00
58967;BME280;44744;51.894;5.080;2023-11-19T03:04:44;100857.35;;;10.89;100.00
58967;BME280;44744;51.894;5.080;2023-11-19T03:05:46;100862.16;;;10.89;100.00
58967;BME280;44744;51.894;5.080;2023-11-19T03:06:46;100856.37;;;10.88;100.00
58967;BME280;44744;51.894;5.080;2023-11-19T03:07:47;100862.27;;;10.87;100.00
58967;BME280;44744;51.894;5.080;2023-11-19T03:08:47;100859.79;;;10.86;100.00
58967;BME280;44744;51.894;5.080;2023-11-19T03:09:48;100859.15;;;10.86;100.00
58967;BME280;44744;51.894;5.080;2023-11-19T03:10:49;100857.44;;;10.84;100.00
58967;BME280;44744;51.894;5.080;2023-11-19T03:11:49;100857.48;;;10.84;100.00
58967;BME280;44744;51.894;5.080;2023-11-19T03:12:50;100859.45;;;10.83;100.00
58967;BME280;44744;51.894;5.080;2023-11-19T03:13:50;100857.77;;;10.82;100.00
58967;BME280;44744;51.894;5.080;2023-11-19T03:14:50;100860.40;;;10.82;100.00
58967;BME280;44744;51.894;5.080;2023-11-19T03:15:50;100862.56;;;10.81;100.00
58967;BME280;44744;51.894;5.080;2023-11-19T03:16:51;100864.20;;;10.80;100.00
58967;BME280;44744;51.894;5.080;2023-11-19T03:17:55;100867.81;;;10.79;100.00
58967;BME280;44744;51.894;5.080;2023-11-19T03:18:57;100868.02;;;10.79;100.00
58967;BME280;44744;51.894;5.080;2023-11-19T03:19:57;100868.09;;;10.77;100.00
58967;BME280;44744;51.894;5.080;2023-11-19T03:20:57;100866.89;;;10.76;100.00
58967;BME280;44744;51.894;5.080;2023-11-19T03:21:57;100869.06;;;10.75;100.00
58967;BME280;44744;51.894;5.080;2023-11-19T03:22:57;100864.16;;;10.75;100.00
58967;BME280;44744;51.894;5.080;2023-11-19T03:23:58;100862.33;;;10.73;100.00
58967;BME280;44744;51.894;5.080;2023-11-19T03:24:58;100856.65;;;10.73;100.00
58967;BME280;44744;51.894;5.080;2023-11-19T03:26:02;100853.33;;;10.72;100.00
58967;BME280;44744;51.894;5.080;2023-11-19T03:27:02;100854.41;;;10.72;100.00
58967;BME280;44744;51.894;5.080;2023-11-19T03:28:03;100850.59;;;10.71;100.00
58967;BME280;44744;51.894;5.080;2023-11-19T03:29:03;100847.12;;;10.69;100.00
58967;BME280;44744;51.894;5.080;2023-11-19T03:30:04;100838.84;;;10.69;100.00
58967;BME280;44744;51.894;5.080;2023-11-19T03:31:06;100832.52;;;10.68;100.00
58967;BME280;44744;51.894;5.080;2023-11-19T03:32:07;100833.26;;;10.67;100.00
58967;BME280;44744;51.894;5.080;2023-11-19T03:33:08;100839.48;;;10.67;100.00
58967;BME280;44744;51.894;5.080;2023-11-19T03:34:08;100841.98;;;10.66;100.00
58967;BME280;44744;51.894;5.080;2023-11-19T03:35:09;100839.00;;;10.66;100.00
58967;BME280;44744;51.894;5.080;2023-11-19T03:36:10;100834.80;;;10.65;100.00
58967;BME280;44744;51.894;5.080;2023-11-19T03:37:12;100833.80;;;10.65;100.00
58967;BME280;44744;51.894;5.080;2023-11-19T03:38:13;100834.95;;;10.63;100.00
58967;BME280;44744;51.894;5.080;2023-11-19T03:39:13;100830.65;;;10.63;100.00
58967;BME280;44744;51.894;5.080;2023-11-19T03:40:13;100832.33;;;10.62;100.00
58967;BME280;44744;51.894;5.080;2023-11-19T03:41:17;100831.61;;;10.62;100.00
58967;BME280;44744;51.894;5.080;2023-11-19T03:42:19;100832.94;;;10.61;100.00
58967;BME280;44744;51.894;5.080;2023-11-19T03:43:19;100830.29;;;10.60;100.00
58967;BME280;44744;51.894;5.080;2023-11-19T03:44:19;100835.62;;;10.60;100.00
58967;BME280;44744;51.894;5.080;2023-11-19T03:45:19;100835.28;;;10.59;100.00
58967;BME280;44744;51.894;5.080;2023-11-19T03:46:19;100842.01;;;10.59;100.00
58967;BME280;44744;51.894;5.080;2023-11-19T03:47:21;100841.20;;;10.58;100.00
58967;BME280;44744;51.894;5.080;2023-11-19T03:48:22;100845.33;;;10.57;100.00
58967;BME280;44744;51.894;5.080;2023-11-19T03:49:24;100846.42;;;10.56;100.00
58967;BME280;44744;51.894;5.080;2023-11-19T03:50:25;100848.57;;;10.56;100.00
58967;BME280;44744;51.894;5.080;2023-11-19T03:51:26;100853.41;;;10.54;100.00
58967;BME280;44744;51.894;5.080;2023-11-19T03:52:26;100853.13;;;10.54;100.00
58967;BME280;44744;51.894;5.080;2023-11-19T03:53:26;100856.83;;;10.54;100.00
58967;BME280;44744;51.894;5.080;2023-11-19T03:54:27;100852.82;;;10.53;100.00
58967;BME280;44744;51.894;5.080;2023-11-19T03:55:27;100856.05;;;10.52;100.00
58967;BME280;44744;51.894;5.080;2023-11-19T03:56:27;100856.30;;;10.51;100.00
58967;BME280;44744;51.894;5.080;2023-11-19T03:57:28;100854.91;;;10.50;100.00
58967;BME280;44744;51.894;5.080;2023-11-19T03:58:29;100852.31;;;10.49;100.00
58967;BME280;44744;51.894;5.080;2023-11-19T03:59:30;100846.51;;;10.48;100.00
58967;BME280;44744;51.894;5.080;2023-11-19T04:00:30;100849.21;;;10.47;100.00
58967;BME280;44744;51.894;5.080;2023-11-19T04:01:30;100852.95;;;10.47;100.00
58967;BME280;44744;51.894;5.080;2023-11-19T04:02:31;100851.77;;;10.46;100.00
58967;BME280;44744;51.894;5.080;2023-11-19T04:03:33;100851.41;;;10.46;100.00
58967;BME280;44744;51.894;5.080;2023-11-19T04:04:33;100856.19;;;10.45;100.00
58967;BME280;44744;51.894;5.080;2023-11-19T04:05:33;100859.23;;;10.45;100.00
58967;BME280;44744;51.894;5.080;2023-11-19T04:06:34;100857.36;;;10.44;100.00
58967;BME280;44744;51.894;5.080;2023-11-19T04:07:37;100857.89;;;10.44;100.00
58967;BME280;44744;51.894;5.080;2023-11-19T04:08:39;100859.02;;;10.43;100.00
58967;BME280;44744;51.894;5.080;2023-11-19T04:09:41;100862.95;;;10.41;100.00
58967;BME280;44744;51.894;5.080;2023-11-19T04:10:41;100867.26;;;10.41;100.00
58967;BME280;44744;51.894;5.080;2023-11-19T04:11:42;100869.05;;;10.40;100.00
58967;BME280;44744;51.894;5.080;2023-11-19T04:12:43;100870.98;;;10.40;100.00
58967;BME280;44744;51.894;5.080;2023-11-19T04:13:53;100873.28;;;10.40;100.00
58967;BME280;44744;51.894;5.080;2023-11-19T04:14:54;100873.88;;;10.39;100.00
58967;BME280;44744;51.894;5.080;2023-11-19T04:15:56;100874.23;;;10.39;100.00
58967;BME280;44744;51.894;5.080;2023-11-19T04:16:57;100874.45;;;10.38;100.00
58967;BME280;44744;51.894;5.080;2023-11-19T04:17:58;100876.29;;;10.37;100.00
58967;BME280;44744;51.894;5.080;2023-11-19T04:18:59;100878.06;;;10.37;100.00
58967;BME280;44744;51.894;5.080;2023-11-19T04:19:59;100879.13;;;10.37;100.00
58967;BME280;44744;51.894;5.080;2023-11-19T04:21:00;100883.04;;;10.36;100.00
58967;BME280;44744;51.894;5.080;2023-11-19T04:22:00;100876.88;;;10.36;100.00
58967;BME280;44744;51.894;5.080;2023-11-19T04:23:01;100872.66;;;10.35;100.00
58967;BME280;44744;51.894;5.080;2023-11-19T04:24:01;100868.61;;;10.35;100.00
58967;BME280;44744;51.894;5.080;2023-11-19T04:25:02;100864.23;;;10.34;100.00
58967;BME280;44744;51.894;5.080;2023-11-19T04:26:03;100870.42;;;10.34;100.00
58967;BME280;44744;51.894;5.080;2023-11-19T04:27:04;100865.15;;;10.33;100.00
58967;BME280;44744;51.894;5.080;2023-11-19T04:28:04;100866.06;;;10.32;100.00
58967;BME280;44744;51.894;5.080;2023-11-19T04:29:08;100866.99;;;10.32;100.00
58967;BME280;44744;51.894;5.080;2023-11-19T04:30:08;100865.94;;;10.32;100.00
58967;BME280;44744;51.894;5.080;2023-11-19T04:31:08;100866.08;;;10.32;100.00
58967;BME280;44744;51.894;5.080;2023-11-19T04:32:09;100868.07;;;10.32;100.00
58967;BME280;44744;51.894;5.080;2023-11-19T04:33:12;100868.82;;;10.31;100.00
58967;BME280;44744;51.894;5.080;2023-11-19T04:34:18;100874.80;;;10.31;100.00
58967;BME280;44744;51.894;5.080;2023-11-19T04:35:20;100874.08;;;10.31;100.00
58967;BME280;44744;51.894;5.080;2023-11-19T04:36:21;100871.65;;;10.31;100.00
58967;BME280;44744;51.894;5.080;2023-11-19T04:37:28;100869.21;;;10.30;100.00
58967;BME280;44744;51.894;5.080;2023-11-19T04:38:28;100867.95;;;10.30;100.00
58967;BME280;44744;51.894;5.080;2023-11-19T04:39:30;100871.35;;;10.29;100.00
58967;BME280;44744;51.894;5.080;2023-11-19T04:40:30;100871.87;;;10.30;100.00
58967;BME280;44744;51.894;5.080;2023-11-19T04:42:50;100875.27;;;10.29;100.00
58967;BME280;44744;51.894;5.080;2023-11-19T04:43:50;100876.35;;;10.29;100.00
58967;BME280;44744;51.894;5.080;2023-11-19T04:44:53;100878.30;;;10.29;100.00
58967;BME280;44744;51.894;5.080;2023-11-19T04:46:05;100878.05;;;10.27;100.00
58967;BME280;44744;51.894;5.080;2023-11-19T04:47:07;100881.94;;;10.27;100.00
58967;BME280;44744;51.894;5.080;2023-11-19T04:48:08;100880.19;;;10.26;100.00
58967;BME280;44744;51.894;5.080;2023-11-19T04:50:39;100881.69;;;10.24;100.00
58967;BME280;44744;51.894;5.080;2023-11-19T04:51:41;100886.43;;;10.25;100.00
58967;BME280;44744;51.894;5.080;2023-11-19T04:52:44;100880.61;;;10.25;100.00
58967;BME280;44744;51.894;5.080;2023-11-19T04:53:45;100881.86;;;10.24;100.00
58967;BME280;44744;51.894;5.080;2023-11-19T04:56:18;100880.50;;;10.23;100.00
58967;BME280;44744;51.894;5.080;2023-11-19T04:57:28;100882.11;;;10.23;100.00
58967;BME280;44744;51.894;5.080;2023-11-19T04:58:32;100883.39;;;10.22;100.00
58967;BME280;44744;51.894;5.080;2023-11-19T05:01:12;100882.02;;;10.21;100.00
58967;BME280;44744;51.894;5.080;2023-11-19T05:02:13;100881.16;;;10.21;100.00
58967;BME280;44744;51.894;5.080;2023-11-19T05:03:14;100883.62;;;10.21;100.00
58967;BME280;44744;51.894;5.080;2023-11-19T05:04:15;100884.70;;;10.21;100.00
58967;BME280;44744;51.894;5.080;2023-11-19T05:05:16;100889.29;;;10.21;100.00
58967;BME280;44744;51.894;5.080;2023-11-19T05:06:16;100884.17;;;10.21;100.00
58967;BME280;44744;51.894;5.080;2023-11-19T05:07:16;100886.15;;;10.20;100.00
58967;BME280;44744;51.894;5.080;2023-11-19T05:08:16;100881.23;;;10.20;100.00
58967;BME280;44744;51.894;5.080;2023-11-19T05:09:17;100878.25;;;10.19;100.00
58967;BME280;44744;51.894;5.080;2023-11-19T05:10:17;100882.14;;;10.19;100.00
58967;BME280;44744;51.894;5.080;2023-11-19T05:11:17;100875.44;;;10.19;100.00
58967;BME280;44744;51.894;5.080;2023-11-19T05:12:17;100874.57;;;10.18;100.00
58967;BME280;44744;51.894;5.080;2023-11-19T05:13:18;100874.94;;;10.18;100.00
58967;BME280;44744;51.894;5.080;2023-11-19T05:14:19;100872.83;;;10.18;100.00
58967;BME280;44744;51.894;5.080;2023-11-19T05:15:19;100872.70;;;10.17;100.00
58967;BME280;44744;51.894;5.080;2023-11-19T05:16:20;100874.44;;;10.18;100.00
58967;BME280;44744;51.894;5.080;2023-11-19T05:17:20;100878.71;;;10.17;100.00
58967;BME280;44744;51.894;5.080;2023-11-19T05:18:23;100886.15;;;10.17;100.00
58967;BME280;44744;51.894;5.080;2023-11-19T05:19:24;100883.35;;;10.16;100.00
58967;BME280;44744;51.894;5.080;2023-11-19T05:20:24;100888.14;;;10.16;100.00
58967;BME280;44744;51.894;5.080;2023-11-19T05:21:25;100888.98;;;10.17;100.00
58967;BME280;44744;51.894;5.080;2023-11-19T05:22:25;100891.84;;;10.16;100.00